Time;durP1;ratioP1;P1;durP2;ratioP2;P2;SDS_P1;SDS_P2;PMS_P1;PMS_P2;Temp;Humidity;BMP_temperature;BMP_pressure;BME280_temperature;BME280_humidity;BME280_pressure;Samples;Min_cycle;Max_cycle;Signal;HPM_P1;HPM_P2
2021/05/02 00:00:40;;;;;;;470.38;283.77;;;;;;;;;;5036818;28;20070;-85
2021/05/02 00:03:06;;;;;;;468.30;283.65;;;;;;;;;;5052065;28;20028;-85
2021/05/02 00:05:34;;;;;;;463.50;278.73;;;;;;;;;;5032518;28;20056;-85
2021/05/02 00:08:00;;;;;;;463.65;276.55;;;;;;;;;;5032987;28;20029;-83
2021/05/02 00:10:31;;;;;;;472.38;276.67;;;;;;;;;;5034010;28;20498;-83
2021/05/02 00:13:00;;;;;;;467.63;276.55;;;;;;;;;;5033169;28;20417;-84
2021/05/02 00:15:27;;;;;;;504.02;287.30;;;;;;;;;;5033348;28;20481;-85
2021/05/02 00:17:53;;;;;;;498.40;290.85;;;;;;;;;;5033304;28;20033;-84
2021/05/02 00:20:21;;;;;;;502.35;280.88;;;;;;;;;;5036703;28;20024;-85
2021/05/02 00:22:49;;;;;;;519.75;299.05;;;;;;;;;;5048680;28;20071;-88
2021/05/02 00:25:15;;;;;;;486.52;284.60;;;;;;;;;;5032200;28;20071;-84
2021/05/02 00:27:42;;;;;;;490.88;284.25;;;;;;;;;;5035821;28;20423;-85
2021/05/02 00:30:08;;;;;;;489.88;278.38;;;;;;;;;;5037512;28;20033;-86
2021/05/02 00:32:34;;;;;;;507.88;291.50;;;;;;;;;;5049363;28;20025;-84
2021/05/02 00:35:01;;;;;;;473.13;276.17;;;;;;;;;;5036639;28;20029;-84
2021/05/02 00:37:28;;;;;;;468.45;276.45;;;;;;;;;;5053799;28;20417;-84
2021/05/02 00:39:54;;;;;;;618.42;351.92;;;;;;;;;;5055111;28;20021;-83
2021/05/02 00:42:32;;;;;;;639.30;347.65;;;;;;;;;;5034201;28;20039;-85
2021/05/02 00:45:06;;;;;;;744.95;425.92;;;;;;;;;;5037661;28;20049;-85
2021/05/02 00:47:37;;;;;;;703.55;388.13;;;;;;;;;;5035109;28;20055;-81
2021/05/02 00:50:28;;;;;;;637.08;352.30;;;;;;;;;;5037448;28;20056;-84
2021/05/02 00:53:07;;;;;;;613.50;330.58;;;;;;;;;;5042539;28;20033;-83
2021/05/02 00:55:47;;;;;;;590.95;314.63;;;;;;;;;;5016781;28;20055;-85
2021/05/02 00:58:19;;;;;;;603.28;334.77;;;;;;;;;;5049500;28;20020;-86
2021/05/02 01:00:49;;;;;;;613.17;348.95;;;;;;;;;;5034067;28;20033;-84
2021/05/02 01:03:16;;;;;;;467.35;279.92;;;;;;;;;;5024391;28;20026;-83
2021/05/02 01:05:44;;;;;;;499.58;291.88;;;;;;;;;;5032686;28;20040;-84
2021/05/02 01:08:12;;;;;;;578.45;327.75;;;;;;;;;;5051779;28;20040;-83
2021/05/02 01:10:38;;;;;;;490.38;285.40;;;;;;;;;;5035981;28;20028;-84
2021/05/02 01:13:07;;;;;;;470.27;283.23;;;;;;;;;;5035083;28;20037;-85
2021/05/02 01:15:34;;;;;;;487.67;282.73;;;;;;;;;;5033701;28;21928;-83
2021/05/02 01:18:00;;;;;;;485.35;286.75;;;;;;;;;;5033626;28;20024;-84
2021/05/02 01:20:30;;;;;;;646.20;351.83;;;;;;;;;;5034090;28;20028;-85
2021/05/02 01:23:02;;;;;;;634.25;346.48;;;;;;;;;;5054084;28;20029;-85
2021/05/02 01:25:29;;;;;;;636.08;344.45;;;;;;;;;;5033915;28;20388;-86
2021/05/02 01:27:56;;;;;;;615.13;347.33;;;;;;;;;;5035808;28;20759;-84
2021/05/02 01:30:23;;;;;;;454.70;273.27;;;;;;;;;;5033464;28;20044;-85
2021/05/02 01:32:49;;;;;;;461.02;275.73;;;;;;;;;;5035696;28;20510;-86
2021/05/02 01:35:16;;;;;;;466.92;282.67;;;;;;;;;;5035554;28;20021;-86
2021/05/02 01:37:42;;;;;;;468.83;274.20;;;;;;;;;;5035636;28;20129;-82
2021/05/02 01:40:08;;;;;;;490.40;285.10;;;;;;;;;;5034473;28;20478;-82
2021/05/02 01:42:38;;;;;;;484.80;271.40;;;;;;;;;;5049666;28;20033;-84
2021/05/02 01:45:05;;;;;;;621.78;331.38;;;;;;;;;;5034433;28;20555;-84
2021/05/02 01:47:31;;;;;;;656.17;366.15;;;;;;;;;;5032190;28;20086;-85
2021/05/02 01:50:02;;;;;;;445.50;269.75;;;;;;;;;;5034232;28;20125;-85
2021/05/02 01:52:28;;;;;;;;;;;;;;;;;;5031578;28;20538;-84
2021/05/02 01:54:57;;;;;;;435.65;251.02;;;;;;;;;;5048449;28;19935;-84
2021/05/02 01:57:27;;;;;;;432.50;253.73;;;;;;;;;;5034862;28;20009;-84
2021/05/02 01:59:54;;;;;;;433.90;254.82;;;;;;;;;;5032102;28;20540;-85
2021/05/02 02:02:20;;;;;;;434.00;264.80;;;;;;;;;;5034676;28;20036;-85
2021/05/02 02:04:50;;;;;;;438.48;264.05;;;;;;;;;;5034380;28;20033;-85
2021/05/02 02:07:17;;;;;;;439.85;259.83;;;;;;;;;;5030998;28;20082;-85
2021/05/02 02:09:43;;;;;;;437.58;261.10;;;;;;;;;;5034294;28;20120;-85
2021/05/02 02:12:09;;;;;;;442.90;269.13;;;;;;;;;;5032660;28;20117;-85
2021/05/02 02:14:39;;;;;;;440.10;262.05;;;;;;;;;;5031493;28;20108;-84
2021/05/02 02:17:06;;;;;;;438.27;259.35;;;;;;;;;;5052269;28;20044;-85
2021/05/02 02:19:32;;;;;;;443.63;261.73;;;;;;;;;;5032983;28;20021;-84
2021/05/02 02:21:59;;;;;;;445.10;260.35;;;;;;;;;;5051471;28;20108;-84
2021/05/02 02:24:33;;;;;;;443.55;261.55;;;;;;;;;;5033326;28;20063;-84
2021/05/02 02:27:00;;;;;;;440.45;254.90;;;;;;;;;;5033719;28;20133;-85
2021/05/02 02:29:26;;;;;;;447.27;257.67;;;;;;;;;;5026712;28;20025;-84
2021/05/02 02:31:53;;;;;;;444.50;264.45;;;;;;;;;;5033609;28;20043;-85
2021/05/02 02:34:22;;;;;;;445.42;259.27;;;;;;;;;;5051399;28;20040;-84
2021/05/02 02:36:48;;;;;;;447.50;257.10;;;;;;;;;;5030487;28;20029;-84
2021/05/02 02:39:15;;;;;;;448.00;256.67;;;;;;;;;;5051378;28;20028;-84
2021/05/02 02:41:43;;;;;;;463.08;270.98;;;;;;;;;;5033432;28;20610;-84
2021/05/02 02:44:10;;;;;;;455.20;263.63;;;;;;;;;;5026006;28;20496;-84
2021/05/02 02:46:52;;;;;;;477.85;260.88;;;;;;;;;;5033861;28;20021;-84
2021/05/02 02:49:21;;;;;;;521.40;277.48;;;;;;;;;;5047456;28;20025;-84
2021/05/02 02:51:48;;;;;;;489.65;265.05;;;;;;;;;;5033697;28;20031;-84
2021/05/02 02:54:16;;;;;;;463.58;254.35;;;;;;;;;;5032321;28;20385;-84
2021/05/02 02:56:45;;;;;;;467.15;260.50;;;;;;;;;;5033601;28;20111;-84
2021/05/02 02:59:14;;;;;;;501.25;267.10;;;;;;;;;;5046294;28;20022;-84
2021/05/02 03:01:42;;;;;;;610.83;324.20;;;;;;;;;;5031932;28;20027;-84
2021/05/02 03:04:10;;;;;;;630.97;326.30;;;;;;;;;;5031615;28;20599;-84
2021/05/02 03:06:36;;;;;;;569.53;279.83;;;;;;;;;;5026208;28;20052;-84
2021/05/02 03:09:02;;;;;;;599.67;306.83;;;;;;;;;;5048786;28;20585;-84
2021/05/02 03:11:28;;;;;;;632.30;321.48;;;;;;;;;;5051205;28;20033;-84
2021/05/02 03:13:54;;;;;;;517.20;263.80;;;;;;;;;;5033534;28;20083;-84
2021/05/02 03:16:23;;;;;;;552.50;287.02;;;;;;;;;;5033339;28;20032;-84
2021/05/02 03:19:02;;;;;;;612.55;312.45;;;;;;;;;;5051061;28;20624;-83
2021/05/02 03:21:47;;;;;;;579.88;284.63;;;;;;;;;;5033131;28;20025;-84
2021/05/02 03:24:14;;;;;;;625.38;307.50;;;;;;;;;;5029168;28;20036;-84
2021/05/02 03:26:40;;;;;;;627.42;313.23;;;;;;;;;;5031212;28;20037;-84
2021/05/02 03:29:09;;;;;;;673.08;330.35;;;;;;;;;;5033350;28;20029;-84
2021/05/02 03:31:35;;;;;;;654.53;326.58;;;;;;;;;;5045232;28;20016;-84
2021/05/02 03:34:03;;;;;;;528.60;272.75;;;;;;;;;;5030184;28;20487;-84
2021/05/02 03:36:34;;;;;;;510.30;274.27;;;;;;;;;;5026469;28;20117;-84
2021/05/02 03:39:00;;;;;;;511.33;268.75;;;;;;;;;;5029129;28;20025;-83
2021/05/02 03:41:27;;;;;;;514.78;282.98;;;;;;;;;;5030975;28;20021;-85
2021/05/02 03:43:53;;;;;;;554.65;284.83;;;;;;;;;;5033164;28;20055;-84
2021/05/02 03:46:25;;;;;;;530.42;277.80;;;;;;;;;;5028987;28;20033;-84
2021/05/02 03:49:00;;;;;;;513.50;267.30;;;;;;;;;;5051073;28;20033;-84
2021/05/02 03:51:26;;;;;;;523.58;275.95;;;;;;;;;;5048842;28;20090;-84
2021/05/02 03:53:53;;;;;;;543.17;286.27;;;;;;;;;;5032279;28;20396;-83
2021/05/02 03:56:29;;;;;;;680.85;350.08;;;;;;;;;;5055533;28;20017;-84
2021/05/02 03:59:03;;;;;;;622.65;317.23;;;;;;;;;;5051847;28;20056;-84
2021/05/02 04:01:29;;;;;;;629.97;327.50;;;;;;;;;;5037134;28;20047;-84
2021/05/02 04:04:23;;;;;;;617.60;318.88;;;;;;;;;;5048930;28;20116;-83
2021/05/02 04:06:49;;;;;;;634.50;319.55;;;;;;;;;;5053576;28;20063;-84
2021/05/02 04:09:16;;;;;;;667.20;328.30;;;;;;;;;;5037238;28;20650;-83
2021/05/02 04:11:42;;;;;;;608.72;319.27;;;;;;;;;;5031426;28;20032;-83
2021/05/02 04:14:09;;;;;;;570.85;294.25;;;;;;;;;;5047768;28;20040;-83
2021/05/02 04:16:35;;;;;;;565.83;293.02;;;;;;;;;;5053807;28;20028;-83
2021/05/02 04:19:02;;;;;;;581.70;292.35;;;;;;;;;;5036755;28;20515;-83
2021/05/02 04:21:28;;;;;;;528.88;278.25;;;;;;;;;;5036618;28;20554;-84
2021/05/02 04:23:54;;;;;;;554.80;288.27;;;;;;;;;;5035556;28;20393;-84
2021/05/02 04:26:21;;;;;;;599.33;320.30;;;;;;;;;;5034929;28;20025;-83
2021/05/02 04:28:47;;;;;;;576.35;303.05;;;;;;;;;;5036208;28;20392;-82
2021/05/02 04:31:13;;;;;;;573.85;301.20;;;;;;;;;;5030430;28;20025;-84
2021/05/02 04:33:39;;;;;;;569.15;304.23;;;;;;;;;;5036185;28;20056;-84
2021/05/02 04:36:06;;;;;;;606.78;320.23;;;;;;;;;;5036561;28;20408;-84
2021/05/02 04:38:32;;;;;;;525.72;278.27;;;;;;;;;;5036295;28;20032;-84
2021/05/02 04:40:58;;;;;;;571.38;300.38;;;;;;;;;;5035878;28;20439;-83
2021/05/02 04:43:24;;;;;;;525.80;283.40;;;;;;;;;;5029914;28;20471;-84
2021/05/02 04:45:50;;;;;;;552.22;296.15;;;;;;;;;;5033245;28;20060;-84
2021/05/02 04:48:16;;;;;;;543.72;292.38;;;;;;;;;;5032897;28;20033;-83
2021/05/02 04:50:42;;;;;;;529.60;283.88;;;;;;;;;;5032957;28;20026;-84
2021/05/02 04:53:21;;;;;;;559.72;297.45;;;;;;;;;;5035061;28;20025;-84
2021/05/02 04:55:47;;;;;;;555.60;297.27;;;;;;;;;;5032418;28;20473;-85
2021/05/02 04:58:13;;;;;;;532.70;286.55;;;;;;;;;;5034266;28;20424;-84
2021/05/02 05:00:39;;;;;;;546.70;288.20;;;;;;;;;;5029845;28;20029;-84
2021/05/02 05:03:06;;;;;;;553.67;304.42;;;;;;;;;;5035740;28;20370;-82
2021/05/02 05:05:32;;;;;;;520.25;277.67;;;;;;;;;;5053872;28;20021;-85
2021/05/02 05:07:58;;;;;;;523.47;281.70;;;;;;;;;;5036099;28;20032;-85
2021/05/02 05:10:24;;;;;;;532.45;285.85;;;;;;;;;;5036063;28;20025;-82
2021/05/02 05:12:51;;;;;;;526.28;273.70;;;;;;;;;;5036494;28;20391;-82
2021/05/02 05:15:17;;;;;;;532.97;279.52;;;;;;;;;;5037410;28;20021;-85
2021/05/02 05:17:43;;;;;;;561.67;298.92;;;;;;;;;;5054315;28;20532;-89
2021/05/02 05:20:09;;;;;;;549.13;296.42;;;;;;;;;;5035656;28;20056;-87
2021/05/02 05:22:35;;;;;;;540.78;289.67;;;;;;;;;;5035730;28;20024;-84
2021/05/02 05:25:01;;;;;;;552.05;302.30;;;;;;;;;;5034584;28;20032;-85
2021/05/02 05:27:27;;;;;;;545.53;293.55;;;;;;;;;;5036022;28;20472;-85
2021/05/02 05:29:53;;;;;;;532.47;283.65;;;;;;;;;;5050980;28;20036;-86
2021/05/02 05:32:19;;;;;;;530.80;282.95;;;;;;;;;;5032171;28;20408;-85
2021/05/02 05:34:45;;;;;;;512.58;275.75;;;;;;;;;;5034552;28;20033;-85
2021/05/02 05:37:11;;;;;;;517.22;268.98;;;;;;;;;;5035856;28;20667;-86
2021/05/02 05:39:37;;;;;;;505.92;281.65;;;;;;;;;;5047575;28;20488;-86
2021/05/02 05:42:05;;;;;;;498.92;268.88;;;;;;;;;;5035383;28;20116;-82
2021/05/02 05:44:31;;;;;;;505.67;275.40;;;;;;;;;;5034672;28;20056;-85
2021/05/02 05:47:03;;;;;;;506.83;269.17;;;;;;;;;;5035485;28;20025;-85
2021/05/02 05:49:29;;;;;;;521.08;266.60;;;;;;;;;;5035095;28;20085;-84
2021/05/02 05:51:55;;;;;;;506.25;279.38;;;;;;;;;;5035308;28;20049;-83
2021/05/02 05:54:22;;;;;;;510.45;280.13;;;;;;;;;;5044337;28;20491;-85
2021/05/02 05:56:48;;;;;;;519.65;286.63;;;;;;;;;;5053604;28;20048;-84
2021/05/02 05:59:14;;;;;;;520.10;284.17;;;;;;;;;;5035301;28;20536;-84
2021/05/02 06:01:40;;;;;;;526.08;290.08;;;;;;;;;;5035155;28;20081;-84
2021/05/02 06:04:06;;;;;;;511.73;276.85;;;;;;;;;;5035279;28;20025;-85
2021/05/02 06:06:36;;;;;;;512.60;280.73;;;;;;;;;;5035340;28;20481;-83
2021/05/02 06:09:14;;;;;;;381.98;225.10;;;;;;;;;;5029527;28;20052;-85
2021/05/02 06:11:40;;;;;;;503.38;271.88;;;;;;;;;;5028010;28;20039;-84
2021/05/02 06:14:08;;;;;;;491.15;276.50;;;;;;;;;;5036098;28;20017;-85
2021/05/02 06:16:34;;;;;;;492.17;278.38;;;;;;;;;;5034436;28;20028;-85
2021/05/02 06:19:00;;;;;;;486.70;272.10;;;;;;;;;;5032293;28;20075;-84
2021/05/02 06:21:27;;;;;;;487.40;274.13;;;;;;;;;;5034367;28;20366;-81
2021/05/02 06:23:54;;;;;;;493.20;273.48;;;;;;;;;;5029074;28;20384;-85
2021/05/02 06:26:20;;;;;;;493.05;277.58;;;;;;;;;;5034462;28;20029;-85
2021/05/02 06:28:48;;;;;;;496.30;282.88;;;;;;;;;;5032712;28;20502;-85
2021/05/02 06:31:14;;;;;;;493.65;291.30;;;;;;;;;;5035056;28;20025;-81
2021/05/02 06:33:40;;;;;;;492.55;276.45;;;;;;;;;;5030337;28;20025;-87
2021/05/02 06:36:07;;;;;;;499.17;283.17;;;;;;;;;;5035453;28;20103;-85
2021/05/02 06:38:33;;;;;;;501.52;283.90;;;;;;;;;;5029625;28;20017;-82
2021/05/02 06:40:59;;;;;;;539.28;305.17;;;;;;;;;;5049604;28;20025;-83
2021/05/02 06:43:25;;;;;;;511.30;292.63;;;;;;;;;;5034542;28;20076;-83
2021/05/02 06:45:51;;;;;;;497.52;287.25;;;;;;;;;;5023480;28;20538;-82
2021/05/02 06:48:17;;;;;;;498.25;281.98;;;;;;;;;;5031170;28;20112;-84
2021/05/02 06:50:43;;;;;;;491.27;282.23;;;;;;;;;;5035326;28;20039;-87
2021/05/02 06:53:09;;;;;;;508.25;285.27;;;;;;;;;;5030269;28;20029;-81
2021/05/02 06:55:36;;;;;;;502.02;290.83;;;;;;;;;;5039981;28;20472;-79
2021/05/02 06:58:02;;;;;;;505.27;289.58;;;;;;;;;;5052031;28;20017;-81
2021/05/02 07:00:28;;;;;;;507.88;289.63;;;;;;;;;;5051625;28;20350;-79
2021/05/02 07:02:55;;;;;;;493.40;287.65;;;;;;;;;;5049339;28;20362;-83
2021/05/02 07:05:22;;;;;;;505.33;289.95;;;;;;;;;;5031665;28;20032;-86
2021/05/02 07:07:47;;;;;;;494.95;289.15;;;;;;;;;;5052510;28;20029;-88
2021/05/02 07:10:14;;;;;;;484.92;282.83;;;;;;;;;;5034046;28;20546;-85
2021/05/02 07:12:40;;;;;;;492.00;290.73;;;;;;;;;;5034294;28;20576;-84
2021/05/02 07:15:07;;;;;;;483.45;294.08;;;;;;;;;;5039342;28;20063;-85
2021/05/02 07:17:33;;;;;;;493.83;288.40;;;;;;;;;;5045498;28;20033;-82
2021/05/02 07:19:59;;;;;;;608.63;350.45;;;;;;;;;;5049203;28;20025;-85
2021/05/02 07:22:28;;;;;;;586.85;343.45;;;;;;;;;;5033155;28;20025;-86
2021/05/02 07:24:54;;;;;;;572.80;330.58;;;;;;;;;;5031945;28;20112;-85
2021/05/02 07:27:29;;;;;;;597.20;350.92;;;;;;;;;;5030911;28;20051;-86
2021/05/02 07:29:55;;;;;;;551.97;316.45;;;;;;;;;;5030026;28;20033;-85
2021/05/02 07:32:21;;;;;;;543.47;321.10;;;;;;;;;;5028418;28;20058;-83
2021/05/02 07:34:47;;;;;;;540.03;321.73;;;;;;;;;;5045752;28;20029;-83
2021/05/02 07:37:13;;;;;;;536.58;318.73;;;;;;;;;;5026275;28;20524;-83
2021/05/02 07:39:40;;;;;;;524.97;315.95;;;;;;;;;;5043986;28;20036;-83
2021/05/02 07:42:06;;;;;;;522.78;321.55;;;;;;;;;;5023921;28;20025;-86
2021/05/02 07:44:32;;;;;;;511.27;303.08;;;;;;;;;;5047750;28;20052;-80
2021/05/02 07:46:58;;;;;;;510.05;301.77;;;;;;;;;;5024252;28;20074;-88
2021/05/02 07:49:24;;;;;;;505.73;302.10;;;;;;;;;;5025189;28;20497;-85
2021/05/02 07:51:50;;;;;;;489.42;300.45;;;;;;;;;;5041226;28;20108;-87
2021/05/02 07:54:16;;;;;;;487.73;299.35;;;;;;;;;;5014493;28;20416;-84
2021/05/02 07:56:42;;;;;;;490.38;308.17;;;;;;;;;;5023105;28;20048;-86
2021/05/02 07:59:08;;;;;;;494.65;313.50;;;;;;;;;;5018657;28;20028;-87
2021/05/02 08:01:34;;;;;;;503.00;325.23;;;;;;;;;;5025238;28;20044;-84
2021/05/02 08:04:00;;;;;;;485.98;308.42;;;;;;;;;;5026228;28;20064;-84
2021/05/02 08:06:32;;;;;;;487.33;304.50;;;;;;;;;;5044823;28;20031;-87
2021/05/02 08:09:16;;;;;;;492.92;310.33;;;;;;;;;;5034004;28;20056;-83
2021/05/02 08:11:42;;;;;;;482.35;308.55;;;;;;;;;;5030024;28;20032;-81
2021/05/02 08:14:08;;;;;;;484.45;306.77;;;;;;;;;;5028598;28;20052;-85
2021/05/02 08:16:34;;;;;;;484.42;317.75;;;;;;;;;;5030985;28;20118;-84
2021/05/02 08:19:01;;;;;;;491.52;329.52;;;;;;;;;;5029065;28;20025;-86
2021/05/02 08:21:28;;;;;;;489.10;332.92;;;;;;;;;;5018209;28;20230;-85
2021/05/02 08:23:54;;;;;;;486.30;327.08;;;;;;;;;;5021453;28;20029;-86
2021/05/02 08:26:20;;;;;;;485.48;323.35;;;;;;;;;;5026891;28;20064;-86
2021/05/02 08:28:46;;;;;;;480.67;316.25;;;;;;;;;;5029212;28;20060;-88
2021/05/02 08:31:12;;;;;;;483.42;320.00;;;;;;;;;;5031776;28;20032;-86
2021/05/02 08:33:39;;;;;;;485.38;322.95;;;;;;;;;;5032161;28;20547;-82
2021/05/02 08:36:05;;;;;;;488.23;325.77;;;;;;;;;;5049113;28;20044;-84
2021/05/02 08:38:31;;;;;;;518.20;343.90;;;;;;;;;;5031316;28;20028;-90
2021/05/02 08:40:59;;;;;;;516.00;354.40;;;;;;;;;;5033761;28;20029;-85
2021/05/02 08:43:25;;;;;;;517.45;357.52;;;;;;;;;;5035903;28;20033;-88
2021/05/02 08:45:51;;;;;;;507.30;355.60;;;;;;;;;;5034984;28;20123;-87
2021/05/02 08:48:21;;;;;;;496.30;356.45;;;;;;;;;;5040200;28;20715;-80
2021/05/02 08:50:49;;;;;;;504.35;370.30;;;;;;;;;;5046043;28;20029;-84
2021/05/02 08:53:15;;;;;;;499.27;378.98;;;;;;;;;;5034122;28;20850;-81
2021/05/02 08:55:42;;;;;;;498.00;379.85;;;;;;;;;;5033654;28;20131;-86
2021/05/02 08:58:14;;;;;;;502.05;387.38;;;;;;;;;;5050769;28;20021;-85
2021/05/02 09:00:40;;;;;;;501.25;385.42;;;;;;;;;;5023200;28;20436;-85
2021/05/02 09:03:12;;;;;;;506.40;378.58;;;;;;;;;;5032879;28;20036;-85
2021/05/02 09:05:44;;;;;;;522.85;397.10;;;;;;;;;;5036148;28;20025;-79
2021/05/02 09:08:11;;;;;;;506.25;396.23;;;;;;;;;;5041656;28;20065;-86
2021/05/02 09:10:37;;;;;;;515.17;403.77;;;;;;;;;;5052805;28;20424;-88
2021/05/02 09:13:06;;;;;;;534.15;418.30;;;;;;;;;;5026690;28;20116;-87
2021/05/02 09:15:46;;;;;;;506.40;384.33;;;;;;;;;;5023713;28;20025;-80
2021/05/02 09:18:17;;;;;;;499.83;363.00;;;;;;;;;;5049801;28;20078;-80
2021/05/02 09:20:45;;;;;;;492.10;343.13;;;;;;;;;;5026716;28;20063;-88
2021/05/02 09:23:12;;;;;;;489.88;342.15;;;;;;;;;;5035023;28;20025;-87
2021/05/02 09:25:45;;;;;;;499.00;337.45;;;;;;;;;;5032905;28;20385;-86
2021/05/02 09:28:11;;;;;;;507.52;349.77;;;;;;;;;;5018218;28;20029;-90
2021/05/02 09:30:37;;;;;;;523.42;373.02;;;;;;;;;;5022199;28;20022;-86
2021/05/02 09:33:03;;;;;;;500.42;369.67;;;;;;;;;;5030016;28;20025;-86
2021/05/02 09:35:30;;;;;;;516.20;402.35;;;;;;;;;;5034035;28;20086;-86
2021/05/02 09:38:10;;;;;;;514.17;423.98;;;;;;;;;;5034322;28;20029;-85
2021/05/02 09:40:48;;;;;;;511.77;420.33;;;;;;;;;;5031388;28;20032;-82
2021/05/02 09:43:29;;;;;;;514.42;408.48;;;;;;;;;;5051448;28;20283;-83
2021/05/02 09:46:08;;;;;;;515.47;400.08;;;;;;;;;;5020738;28;20564;-84
2021/05/02 09:48:34;;;;;;;519.88;419.08;;;;;;;;;;5033646;28;20462;-88
2021/05/02 09:51:13;;;;;;;509.45;411.20;;;;;;;;;;5033281;28;20415;-82
2021/05/02 09:53:39;;;;;;;513.92;419.70;;;;;;;;;;5031574;28;20033;-84
2021/05/02 09:56:14;;;;;;;516.83;419.33;;;;;;;;;;5034231;28;20468;-83
2021/05/02 09:58:40;;;;;;;515.88;411.08;;;;;;;;;;5022533;28;20025;-86
2021/05/02 10:01:07;;;;;;;507.50;397.60;;;;;;;;;;5029907;28;20269;-87
2021/05/02 10:03:36;;;;;;;508.85;386.45;;;;;;;;;;5040929;28;20021;-85
2021/05/02 10:06:03;;;;;;;510.52;386.73;;;;;;;;;;5051653;28;20033;-86
2021/05/02 10:08:30;;;;;;;509.95;387.67;;;;;;;;;;5033520;28;20024;-86
2021/05/02 10:10:57;;;;;;;507.45;397.38;;;;;;;;;;5051252;28;20041;-81
2021/05/02 10:13:23;;;;;;;512.13;401.23;;;;;;;;;;5051738;28;20033;-83
2021/05/02 10:15:50;;;;;;;511.33;396.02;;;;;;;;;;5025737;28;20500;-89
2021/05/02 10:18:16;;;;;;;503.42;375.55;;;;;;;;;;5025816;28;20064;-88
2021/05/02 10:20:46;;;;;;;503.80;373.73;;;;;;;;;;5043226;28;20056;-87
2021/05/02 10:23:13;;;;;;;519.35;381.90;;;;;;;;;;5050918;28;20558;-84
2021/05/02 10:25:40;;;;;;;508.58;385.73;;;;;;;;;;5023279;28;20040;-86
2021/05/02 10:28:07;;;;;;;513.20;407.27;;;;;;;;;;5033716;28;20029;-85
2021/05/02 10:30:34;;;;;;;531.00;442.60;;;;;;;;;;5025418;28;20029;-85
2021/05/02 10:33:01;;;;;;;524.45;454.08;;;;;;;;;;5028846;28;20033;-86
2021/05/02 10:35:41;;;;;;;517.22;455.25;;;;;;;;;;5047010;28;20032;-85
2021/05/02 10:38:07;;;;;;;;;;;;;;;;;;5051267;28;20078;-78
2021/05/02 10:40:33;;;;;;;521.50;412.92;;;;;;;;;;5033120;28;19916;-84
2021/05/02 10:43:03;;;;;;;513.08;409.15;;;;;;;;;;5025349;28;20535;-88
2021/05/02 10:45:42;;;;;;;518.15;420.05;;;;;;;;;;5030813;28;20024;-79
2021/05/02 10:48:27;;;;;;;525.55;423.88;;;;;;;;;;5051563;28;20029;-85
2021/05/02 10:50:54;;;;;;;515.58;414.60;;;;;;;;;;5034409;28;20147;-84
2021/05/02 10:53:21;;;;;;;521.78;416.27;;;;;;;;;;5046149;28;20076;-83
2021/05/02 10:55:47;;;;;;;510.45;405.83;;;;;;;;;;5041658;28;20026;-84
2021/05/02 10:58:26;;;;;;;524.13;417.40;;;;;;;;;;5049279;28;20030;-79
2021/05/02 11:00:54;;;;;;;508.88;387.88;;;;;;;;;;5031438;28;20750;-86
2021/05/02 11:03:36;;;;;;;514.70;386.92;;;;;;;;;;5026093;28;20119;-84
2021/05/02 11:06:22;;;;;;;516.50;373.40;;;;;;;;;;5027404;28;20024;-83
2021/05/02 11:08:48;;;;;;;504.55;366.92;;;;;;;;;;5048032;28;20095;-86
2021/05/02 11:11:33;;;;;;;510.70;364.10;;;;;;;;;;5052825;28;20583;-82
2021/05/02 11:14:21;;;;;;;518.35;388.45;;;;;;;;;;5051332;28;20025;-81
2021/05/02 11:16:59;;;;;;;522.83;419.98;;;;;;;;;;5045400;28;20028;-77
2021/05/02 11:19:35;;;;;;;525.85;443.70;;;;;;;;;;5028850;28;20365;-85
2021/05/02 11:22:03;;;;;;;528.00;464.20;;;;;;;;;;5053254;28;20487;-83
2021/05/02 11:24:50;;;;;;;530.72;467.90;;;;;;;;;;5034384;28;20064;-78
2021/05/02 11:27:21;;;;;;;524.53;455.40;;;;;;;;;;5031158;28;20025;-83
2021/05/02 11:30:19;;;;;;;553.10;493.02;;;;;;;;;;5052640;28;20025;-84
2021/05/02 11:32:46;;;;;;;552.38;493.38;;;;;;;;;;5031398;28;20478;-83
2021/05/02 11:35:16;;;;;;;583.47;523.08;;;;;;;;;;5034977;28;20021;-81
2021/05/02 11:37:48;;;;;;;573.85;515.55;;;;;;;;;;5025539;28;20021;-84
2021/05/02 11:40:26;;;;;;;542.65;485.45;;;;;;;;;;5053858;28;20056;-82
2021/05/02 11:42:55;;;;;;;517.58;460.38;;;;;;;;;;5035509;28;20035;-79
2021/05/02 11:45:22;;;;;;;512.03;434.38;;;;;;;;;;5035626;28;20021;-83
2021/05/02 11:47:48;;;;;;;509.55;414.48;;;;;;;;;;5035675;28;20051;-85
2021/05/02 11:50:15;;;;;;;515.15;411.85;;;;;;;;;;5044862;28;20615;-82
2021/05/02 11:52:47;;;;;;;516.75;399.15;;;;;;;;;;5035204;28;20040;-82
2021/05/02 11:55:48;;;;;;;515.05;387.75;;;;;;;;;;5050721;28;20036;-81
2021/05/02 11:58:15;;;;;;;510.25;374.40;;;;;;;;;;4974956;28;20530;-84
2021/05/02 12:00:42;;;;;;;512.35;384.92;;;;;;;;;;5017888;28;20654;-81
2021/05/02 12:03:11;;;;;;;525.70;423.73;;;;;;;;;;5027636;28;20064;-79
2021/05/02 12:05:50;;;;;;;530.78;454.35;;;;;;;;;;5052031;28;20033;-82
2021/05/02 12:08:16;;;;;;;529.45;462.73;;;;;;;;;;5034956;28;20411;-78
2021/05/02 12:10:43;;;;;;;522.95;437.05;;;;;;;;;;5032131;28;20136;-85
2021/05/02 12:13:27;;;;;;;526.08;427.27;;;;;;;;;;5030847;28;20029;-83
2021/05/02 12:16:03;;;;;;;515.20;413.70;;;;;;;;;;5038069;28;20455;-80
2021/05/02 12:18:48;;;;;;;531.75;440.33;;;;;;;;;;5055383;28;20029;-79
2021/05/02 12:21:22;;;;;;;538.35;447.80;;;;;;;;;;5034092;28;20033;-79
2021/05/02 12:23:48;;;;;;;649.55;562.38;;;;;;;;;;5032311;28;20742;-80
2021/05/02 12:26:16;;;;;;;619.45;519.58;;;;;;;;;;5033814;28;20025;-81
2021/05/02 12:28:42;;;;;;;541.90;428.52;;;;;;;;;;5034713;28;20657;-79
2021/05/02 12:31:11;;;;;;;533.33;401.42;;;;;;;;;;5055509;28;20025;-83
2021/05/02 12:33:37;;;;;;;521.55;387.77;;;;;;;;;;5035182;28;20052;-80
2021/05/02 12:36:05;;;;;;;521.95;370.85;;;;;;;;;;5037523;28;20025;-79
2021/05/02 12:38:31;;;;;;;521.63;367.05;;;;;;;;;;5037084;28;20059;-80
2021/05/02 12:40:57;;;;;;;521.88;382.83;;;;;;;;;;5036139;28;20045;-83
2021/05/02 12:43:23;;;;;;;525.10;396.30;;;;;;;;;;5036245;28;20384;-81
2021/05/02 12:45:49;;;;;;;519.03;409.58;;;;;;;;;;5053518;28;20028;-83
2021/05/02 12:48:25;;;;;;;523.25;441.63;;;;;;;;;;5036239;28;20067;-81
2021/05/02 12:50:52;;;;;;;522.88;462.00;;;;;;;;;;5030082;28;20037;-78
2021/05/02 12:53:18;;;;;;;533.97;475.80;;;;;;;;;;5054905;28;20427;-81
2021/05/02 12:58:49;;;;;;;520.75;462.13;;;;;;;;;;5049285;28;20075;-82
2021/05/02 13:01:17;;;;;;;526.05;464.63;;;;;;;;;;5038389;28;20025;-81
2021/05/02 13:03:59;;;;;;;520.85;444.88;;;;;;;;;;5037062;28;20033;-85
2021/05/02 13:06:26;;;;;;;518.40;422.85;;;;;;;;;;5055440;28;20032;-82
2021/05/02 13:09:02;;;;;;;521.47;426.42;;;;;;;;;;5055104;28;20032;-82
2021/05/02 13:11:30;;;;;;;519.40;422.75;;;;;;;;;;5035030;28;20788;-80
2021/05/02 13:14:12;;;;;;;510.45;407.13;;;;;;;;;;5055614;28;20104;-78
2021/05/02 13:16:42;;;;;;;515.35;411.40;;;;;;;;;;5055338;28;20436;-84
2021/05/02 13:19:20;;;;;;;505.10;400.70;;;;;;;;;;5037735;28;20492;-78
2021/05/02 13:21:46;;;;;;;513.28;405.15;;;;;;;;;;5037869;28;20112;-81
2021/05/02 13:24:12;;;;;;;506.27;397.15;;;;;;;;;;5018213;28;20056;-81
2021/05/02 13:26:42;;;;;;;512.17;405.50;;;;;;;;;;5037146;28;20028;-80
2021/05/02 13:29:08;;;;;;;507.95;386.08;;;;;;;;;;5037555;28;20029;-83
2021/05/02 13:31:53;;;;;;;517.65;403.60;;;;;;;;;;5055102;28;20473;-80
2021/05/02 13:34:21;;;;;;;510.85;399.65;;;;;;;;;;5037210;28;20025;-79
2021/05/02 13:36:49;;;;;;;515.70;410.40;;;;;;;;;;4984293;28;20438;-80
2021/05/02 13:39:20;;;;;;;508.88;402.00;;;;;;;;;;5022687;28;20025;-82
2021/05/02 13:41:46;;;;;;;508.33;393.88;;;;;;;;;;5055207;28;20028;-76
2021/05/02 13:44:14;;;;;;;511.60;387.65;;;;;;;;;;5037059;28;20073;-85
2021/05/02 13:46:40;;;;;;;508.48;377.27;;;;;;;;;;5037354;28;20029;-83
2021/05/02 13:49:06;;;;;;;504.98;369.30;;;;;;;;;;5036990;28;20570;-81
2021/05/02 13:51:32;;;;;;;504.77;359.92;;;;;;;;;;5036859;28;20029;-82
2021/05/02 13:53:58;;;;;;;498.05;347.55;;;;;;;;;;5023044;28;20059;-81
2021/05/02 13:56:24;;;;;;;491.90;343.90;;;;;;;;;;5053345;28;20443;-81
2021/05/02 13:58:51;;;;;;;496.67;341.83;;;;;;;;;;5047086;28;20021;-82
2021/05/02 14:01:17;;;;;;;496.73;335.60;;;;;;;;;;5036918;28;20017;-82
2021/05/02 14:03:43;;;;;;;498.48;338.50;;;;;;;;;;5025830;28;20033;-83
2021/05/02 14:06:09;;;;;;;499.38;340.65;;;;;;;;;;5036830;28;20543;-82